createdAt,value
2022-10-13T00:09:49.858Z,7.22
2022-10-13T00:19:52.796Z,7.07
2022-10-13T00:29:55.974Z,6.93
2022-10-13T00:39:58.958Z,6.82
2022-10-13T00:50:03.062Z,6.75
2022-10-13T01:00:07.764Z,6.64
2022-10-13T01:10:11.087Z,6.53
2022-10-13T01:20:48.648Z,6.46
2022-10-13T01:31:16.323Z,6.34
2022-10-13T01:41:29.205Z,6.22
2022-10-13T01:51:34.204Z,6.12
2022-10-13T02:02:05.048Z,6.04
2022-10-13T02:12:17.191Z,5.95
2022-10-13T02:22:22.309Z,5.85
2022-10-13T02:32:26.106Z,5.91
2022-10-13T02:42:29.318Z,5.89
2022-10-13T02:52:35.333Z,5.86
2022-10-13T03:02:38.533Z,5.84
2022-10-13T03:12:41.651Z,5.82
2022-10-13T03:22:49.436Z,5.80
2022-10-13T03:32:53.349Z,5.92
2022-10-13T03:42:56.904Z,6.06
2022-10-13T03:53:00.451Z,6.11
2022-10-13T04:03:03.689Z,6.12
2022-10-13T04:13:07.063Z,6.04
2022-10-13T04:23:10.337Z,6.00
2022-10-13T04:33:17.070Z,5.97
2022-10-13T04:43:20.069Z,5.92
2022-10-13T04:53:26.658Z,5.83
2022-10-13T05:03:30.066Z,5.77
2022-10-13T05:13:33.111Z,5.68
2022-10-13T05:23:36.375Z,5.66
2022-10-13T05:33:39.787Z,5.77
2022-10-13T05:43:43.177Z,5.91
2022-10-13T05:53:55.364Z,6.16
2022-10-13T06:04:06.350Z,6.28
2022-10-13T06:14:09.376Z,6.61
2022-10-13T06:24:12.394Z,7.86
2022-10-13T06:34:15.745Z,9.29
2022-10-13T06:44:20.465Z,10.34
2022-10-13T06:54:23.478Z,11.07
2022-10-13T07:04:28.121Z,11.76
2022-10-13T07:14:34.423Z,11.96
2022-10-13T07:24:37.496Z,11.84
2022-10-13T07:34:40.564Z,11.70
2022-10-13T07:44:43.823Z,11.62
2022-10-13T07:54:46.751Z,11.62
2022-10-13T08:04:50.106Z,11.95
2022-10-13T08:14:53.192Z,12.19
2022-10-13T08:24:56.313Z,12.31
2022-10-13T08:34:59.501Z,12.57
2022-10-13T08:45:39.302Z,12.85
2022-10-13T08:55:56.352Z,13.14
2022-10-13T09:06:32.315Z,13.31
2022-10-13T09:16:41.457Z,13.45
2022-10-13T09:26:50.236Z,13.60
2022-10-13T09:36:58.522Z,13.82
2022-10-13T09:47:04.151Z,13.98
2022-10-13T09:57:26.312Z,14.10
2022-10-13T10:07:31.877Z,14.27
2022-10-13T10:17:46.873Z,14.42
2022-10-13T10:28:10.487Z,14.55
2022-10-13T10:38:32.494Z,14.64
2022-10-13T10:48:39.028Z,14.74
2022-10-13T10:58:53.605Z,14.86
2022-10-13T11:08:58.343Z,15.00
2022-10-13T11:19:08.070Z,14.98
2022-10-13T11:29:20.030Z,15.02
2022-10-13T11:50:06.404Z,15.17
2022-10-13T12:00:17.376Z,15.20
2022-10-13T12:10:30.478Z,15.25
2022-10-13T12:20:33.568Z,15.31
2022-10-13T12:30:37.268Z,15.36
2022-10-13T12:40:43.790Z,15.43
2022-10-13T12:50:47.043Z,15.37
2022-10-13T13:01:26.007Z,15.38
2022-10-13T13:11:39.219Z,15.39
2022-10-13T13:21:45.553Z,15.39
2022-10-13T13:31:48.710Z,15.38
2022-10-13T13:41:51.930Z,15.41
2022-10-13T13:51:55.315Z,15.33
2022-10-13T14:01:58.849Z,15.30
2022-10-13T14:12:02.673Z,15.29
2022-10-13T14:22:19.974Z,15.20
2022-10-13T14:32:23.407Z,15.11
2022-10-13T14:42:26.610Z,15.01
2022-10-13T14:52:29.691Z,14.91
2022-10-13T15:02:33.233Z,14.79
2022-10-13T15:12:36.353Z,14.65
2022-10-13T15:22:39.428Z,14.46
2022-10-13T15:32:48.742Z,14.19
2022-10-13T15:42:52.899Z,13.89
2022-10-13T15:52:56.051Z,13.63
2022-10-13T16:02:59.253Z,13.34
2022-10-13T16:13:02.566Z,13.04
2022-10-13T16:23:05.647Z,12.54
2022-10-13T16:33:08.916Z,12.10
2022-10-13T16:43:11.904Z,11.84
2022-10-13T16:53:15.276Z,11.63
2022-10-13T17:03:18.600Z,11.63
2022-10-13T17:13:21.970Z,11.44
2022-10-13T17:23:26.586Z,11.25
2022-10-13T17:33:31.779Z,11.15
2022-10-13T17:43:37.145Z,11.16
2022-10-13T17:53:42.217Z,11.05
2022-10-13T18:03:50.746Z,10.85
